Time;durP1;ratioP1;P1;durP2;ratioP2;P2;SDS_P1;SDS_P2;PMS_P1;PMS_P2;Temp;Humidity;BMP_temperature;BMP_pressure;BME280_temperature;BME280_humidity;BME280_pressure;Samples;Min_cycle;Max_cycle;Signal;HPM_P1;HPM_P2
2021/06/15 00:01:18;;;;;;;;;;;;;;;-144.31;72.89;74964.47;4965680;28;19929;-77
2021/06/15 00:03:44;;;;;;;;;;;;;;;-144.31;72.84;74968.47;4964536;28;20352;-77
2021/06/15 00:06:12;;;;;;;;;;;;;;;-144.31;72.81;74978.44;4960184;28;19918;-76
2021/06/15 00:08:37;;;;;;;;;;;;;;;-144.31;72.73;74974.47;4962952;28;20368;-75
2021/06/15 00:11:02;;;;;;;;;;;;;;;-144.31;72.63;74978.44;4965098;28;19918;-77
2021/06/15 00:13:28;;;;;;;;;;;;;;;-144.31;72.58;74990.44;4965081;28;19918;-76
2021/06/15 00:15:53;;;;;;;;;;;;;;;-144.31;72.51;74992.44;4960574;28;19914;-76
2021/06/15 00:18:19;;;;;;;;;;;;;;;-144.31;72.43;74990.44;4968888;28;20300;-77
2021/06/15 00:20:45;;;;;;;;;;;;;;;-144.31;72.38;74998.41;4969298;28;20378;-77
2021/06/15 00:23:11;;;;;;;;;;;;;;;-144.31;72.29;74994.44;4969951;28;19925;-78
2021/06/15 00:25:36;;;;;;;;;;;;;;;-144.31;72.24;75000.41;4966753;28;19932;-79
2021/06/15 00:28:03;;;;;;;;;;;;;;;-144.31;72.18;74996.41;4971887;28;19921;-76
2021/06/15 00:30:28;;;;;;;;;;;;;;;-144.31;72.13;74996.41;4985979;28;19918;-76
2021/06/15 00:32:54;;;;;;;;;;;;;;;-144.31;71.99;74984.44;4964444;28;19944;-76
2021/06/15 00:35:19;;;;;;;;;;;;;;;-144.31;71.87;74996.41;4966350;28;19918;-82
2021/06/15 00:37:46;;;;;;;;;;;;;;;-144.31;71.84;75004.41;4972142;28;19925;-77
2021/06/15 00:40:11;;;;;;;;;;;;;;;-144.31;71.83;75006.41;4959791;28;19918;-76
2021/06/15 00:42:38;;;;;;;;;;;;;;;-144.31;71.80;75022.38;4947912;28;19918;-76
2021/06/15 00:45:07;;;;;;;;;;;;;;;-144.31;71.73;75018.38;4966203;28;19918;-77
2021/06/15 00:47:33;;;;;;;;;;;;;;;-144.31;71.66;75010.41;4968631;28;19918;-78
2021/06/15 00:49:59;;;;;;;;;;;;;;;-144.31;71.62;75016.41;4950645;28;19914;-76
2021/06/15 00:52:24;;;;;;;;;;;;;;;-144.31;71.51;75022.38;4960590;28;20292;-76
2021/06/15 00:54:50;;;;;;;;;;;;;;;-144.31;71.44;75024.38;4968134;28;20013;-76
2021/06/15 00:57:17;;;;;;;;;;;;;;;-144.31;71.35;75036.38;4967114;28;20592;-76
2021/06/15 00:59:44;;;;;;;;;;;;;;;-144.31;71.31;75048.34;4966691;28;20009;-78
2021/06/15 01:02:12;;;;;;;;;;;;;;;-144.31;71.24;75052.34;4977979;28;20017;-76
2021/06/15 01:04:38;;;;;;;;;;;;;;;-144.31;71.18;75052.34;4966237;28;20296;-77
2021/06/15 01:07:15;;;;;;;;;;;;;;;-144.31;71.13;75048.34;4953954;28;19965;-78
2021/06/15 01:09:40;;;;;;;;;;;;;;;-144.31;71.11;75052.34;4979418;28;20447;-75
2021/06/15 01:12:17;;;;;;;;;;;;;;;-144.31;71.06;75052.34;4963071;28;20008;-78
2021/06/15 01:14:45;;;;;;;;;;;;;;;-144.31;71.06;75062.31;4968211;28;19918;-76
2021/06/15 01:17:11;;;;;;;;;;;;;;;-144.31;71.05;75068.31;4980879;28;19973;-75
2021/06/15 01:19:46;;;;;;;;;;;;;;;-144.31;71.03;75068.31;4968184;28;19925;-77
2021/06/15 01:22:34;;;;;;;;;;;;;;;-144.31;70.99;75070.31;4962577;28;19918;-76
2021/06/15 01:25:06;;;;;;;;;;;;;;;-144.31;70.94;75070.31;4957632;28;19914;-77
2021/06/15 01:27:47;;;;;;;;;;;;;;;-144.31;70.91;75072.31;4984182;28;20392;-76
2021/06/15 01:30:14;;;;;;;;;;;;;;;-144.31;70.91;75080.31;4975061;28;19918;-76
2021/06/15 01:32:43;;;;;;;;;;;;;;;-144.31;70.86;75088.28;4963449;28;19923;-76
2021/06/15 01:35:12;;;;;;;;;;;;;;;-144.31;70.89;75098.28;4961015;28;19918;-77
2021/06/15 01:37:41;;;;;;;;;;;;;;;-144.31;70.88;75108.25;4964446;28;19914;-78
2021/06/15 01:40:13;;;;;;;;;;;;;;;-144.31;70.90;75114.25;4981674;28;19933;-78
2021/06/15 01:42:51;;;;;;;;;;;;;;;-144.31;70.89;75118.25;4955320;28;19918;-76
2021/06/15 01:45:20;;;;;;;;;;;;;;;-144.31;70.89;75126.22;4961489;28;19918;-77
2021/06/15 01:47:51;;;;;;;;;;;;;;;-144.31;70.91;75136.22;4965779;28;19925;-76
2021/06/15 01:50:21;;;;;;;;;;;;;;;-144.31;70.90;75146.19;4965847;28;19950;-79
2021/06/15 01:52:47;;;;;;;;;;;;;;;-144.31;70.88;75148.19;4963293;28;20313;-80
2021/06/15 01:55:13;;;;;;;;;;;;;;;-144.31;70.87;75144.22;4967581;28;20016;-76
2021/06/15 01:57:49;;;;;;;;;;;;;;;-144.31;70.83;75156.19;4958226;28;19926;-76
2021/06/15 02:00:15;;;;;;;;;;;;;;;-144.31;70.83;75150.19;4958094;28;20324;-78
2021/06/15 02:02:52;;;;;;;;;;;;;;;-144.31;70.81;75154.19;4950685;28;20384;-77
2021/06/15 02:05:29;;;;;;;;;;;;;;;-144.31;70.76;75146.19;4947043;28;19918;-76
2021/06/15 02:07:58;;;;;;;;;;;;;;;-144.31;70.76;75158.19;4957324;28;19925;-77
2021/06/15 02:10:26;;;;;;;;;;;;;;;-144.31;70.77;75162.19;4978482;28;19918;-76
2021/06/15 02:13:06;;;;;;;;;;;;;;;-144.31;70.77;75162.19;4972860;28;19922;-77
2021/06/15 02:15:50;;;;;;;;;;;;;;;-144.31;70.75;75170.16;4962711;28;19981;-77
2021/06/15 02:18:30;;;;;;;;;;;;;;;-144.31;70.76;75172.16;4949520;28;19924;-78
2021/06/15 02:21:00;;;;;;;;;;;;;;;-144.31;70.77;75162.19;4978709;28;19914;-76
2021/06/15 02:23:29;;;;;;;;;;;;;;;-144.31;70.67;75152.19;4957583;28;19950;-76
2021/06/15 02:26:02;;;;;;;;;;;;;;;-144.31;70.69;75162.19;4968929;28;19918;-76
2021/06/15 02:28:32;;;;;;;;;;;;;;;-144.31;70.53;75144.22;4957633;28;20330;-76
2021/06/15 02:30:59;;;;;;;;;;;;;;;-144.31;70.47;75146.19;4974249;28;19914;-76
2021/06/15 02:33:27;;;;;;;;;;;;;;;-144.31;70.44;75150.19;4953620;28;19930;-76
2021/06/15 02:36:03;;;;;;;;;;;;;;;-144.31;70.37;75142.22;4958721;28;19918;-76
2021/06/15 02:38:31;;;;;;;;;;;;;;;-144.31;70.36;75144.22;4956961;28;19924;-76
2021/06/15 02:40:59;;;;;;;;;;;;;;;-144.31;70.36;75154.19;4972396;28;20508;-76
2021/06/15 02:43:25;;;;;;;;;;;;;;;-144.31;70.36;75162.19;4972684;28;20045;-76
2021/06/15 02:45:53;;;;;;;;;;;;;;;-144.31;70.32;75164.19;4944796;28;19917;-75
2021/06/15 02:48:22;;;;;;;;;;;;;;;-144.31;70.30;75170.16;4965286;28;20384;-76
2021/06/15 02:50:53;;;;;;;;;;;;;;;-144.31;70.28;75182.16;4961898;28;19962;-77
2021/06/15 02:53:26;;;;;;;;;;;;;;;-144.31;70.28;75186.16;4957288;28;20709;-75
2021/06/15 02:55:58;;;;;;;;;;;;;;;-144.31;70.27;75190.13;4970097;28;20439;-75
2021/06/15 02:58:26;;;;;;;;;;;;;;;-144.31;70.25;75200.13;4956703;28;20019;-76
2021/06/15 03:00:52;;;;;;;;;;;;;;;-144.31;70.23;75206.13;4943368;28;20299;-75
2021/06/15 03:03:18;;;;;;;;;;;;;;;-144.31;70.24;75210.13;4961617;28;19937;-75
2021/06/15 03:05:43;;;;;;;;;;;;;;;-144.31;70.22;75204.13;4967415;28;20248;-77
2021/06/15 03:08:10;;;;;;;;;;;;;;;-144.31;70.23;75214.09;4970877;28;20381;-76
2021/06/15 03:10:37;;;;;;;;;;;;;;;-144.31;70.22;75216.09;4974562;28;19918;-75
2021/06/15 03:13:10;;;;;;;;;;;;;;;-144.31;70.21;75226.09;4965631;28;19981;-77
2021/06/15 03:15:37;;;;;;;;;;;;;;;-144.31;70.20;75224.09;4940548;28;19936;-76
2021/06/15 03:18:05;;;;;;;;;;;;;;;-144.31;70.17;75214.09;4967289;28;19922;-76
2021/06/15 03:20:32;;;;;;;;;;;;;;;-144.31;70.16;75218.09;4955019;28;19922;-77
2021/06/15 03:23:10;;;;;;;;;;;;;;;-144.31;70.17;75222.09;4967304;28;19937;-75
2021/06/15 03:25:41;;;;;;;;;;;;;;;-144.31;70.13;75218.09;4959767;28;19923;-76
2021/06/15 03:28:14;;;;;;;;;;;;;;;-144.31;70.14;75222.09;4963088;28;20009;-78
2021/06/15 03:30:42;;;;;;;;;;;;;;;-144.31;70.07;75196.13;4967484;28;19918;-75
2021/06/15 03:33:15;;;;;;;;;;;;;;;-144.31;70.04;75188.16;4974796;28;19968;-77
2021/06/15 03:35:44;;;;;;;;;;;;;;;-144.31;70.03;75198.13;4974061;28;19918;-77
2021/06/15 03:38:13;;;;;;;;;;;;;;;-144.31;70.03;75200.13;4954387;28;19914;-77
2021/06/15 03:40:41;;;;;;;;;;;;;;;-144.31;70.02;75202.13;4957196;28;19914;-74
2021/06/15 03:43:07;;;;;;;;;;;;;;;-144.31;70.03;75200.13;4970468;28;20391;-76
2021/06/15 03:45:38;;;;;;;;;;;;;;;-144.31;70.03;75206.13;4970989;28;20335;-75
2021/06/15 03:48:05;;;;;;;;;;;;;;;-144.31;70.02;75206.13;4967243;28;20293;-76
2021/06/15 03:50:32;;;;;;;;;;;;;;;-144.31;70.01;75208.13;4969334;28;19965;-76
2021/06/15 03:53:01;;;;;;;;;;;;;;;-144.31;70.02;75206.13;4957569;28;20459;-76
2021/06/15 03:55:29;;;;;;;;;;;;;;;-144.31;70.02;75208.13;4967778;28;19918;-77
2021/06/15 03:57:56;;;;;;;;;;;;;;;-144.31;70.03;75202.13;4951845;28;19918;-77
2021/06/15 04:00:24;;;;;;;;;;;;;;;-144.31;70.01;75202.13;4958943;28;19922;-76
2021/06/15 04:02:52;;;;;;;;;;;;;;;-144.31;70.01;75196.13;4958094;28;19969;-75
2021/06/15 04:05:19;;;;;;;;;;;;;;;-144.31;70.01;75192.13;4955322;28;19918;-75
2021/06/15 04:07:45;;;;;;;;;;;;;;;-144.31;70.03;75194.13;4975252;28;20467;-77
2021/06/15 04:10:13;;;;;;;;;;;;;;;-144.31;70.03;75182.16;4970128;28;19985;-76
2021/06/15 04:12:39;;;;;;;;;;;;;;;-144.31;70.04;75180.16;4965745;28;19922;-76
2021/06/15 04:15:07;;;;;;;;;;;;;;;-144.31;70.03;75170.16;4969739;28;19925;-76
2021/06/15 04:17:36;;;;;;;;;;;;;;;-144.31;70.04;75158.19;4971614;28;19954;-76
2021/06/15 04:20:03;;;;;;;;;;;;;;;-144.31;70.05;75148.19;4973912;28;19997;-77
2021/06/15 04:22:31;;;;;;;;;;;;;;;-144.31;70.04;75132.22;4952682;28;20395;-74
2021/06/15 04:24:58;;;;;;;;;;;;;;;-144.31;70.03;75120.25;4961551;28;19918;-77
2021/06/15 04:27:25;;;;;;;;;;;;;;;-144.31;70.03;75112.25;4975584;28;19925;-76
2021/06/15 04:29:55;;;;;;;;;;;;;;;-144.31;70.04;75102.28;4955465;28;19918;-76
2021/06/15 04:32:31;;;;;;;;;;;;;;;-144.31;70.06;75088.28;4979180;28;19922;-76
2021/06/15 04:35:02;;;;;;;;;;;;;;;-144.31;70.04;75072.31;4956837;28;19993;-76
2021/06/15 04:37:29;;;;;;;;;;;;;;;-144.31;70.06;75062.31;4978949;28;19929;-76
2021/06/15 04:40:02;;;;;;;;;;;;;;;-144.31;70.06;75046.34;4944287;28;19918;-76
2021/06/15 04:42:34;;;;;;;;;;;;;;;-144.31;70.06;75022.38;4958795;28;19945;-76
2021/06/15 04:45:00;;;;;;;;;;;;;;;-144.31;70.08;75014.41;4978922;28;19925;-76
2021/06/15 04:47:27;;;;;;;;;;;;;;;-144.31;70.11;74988.44;4975301;28;19914;-76
2021/06/15 04:49:55;;;;;;;;;;;;;;;-144.31;70.13;74972.47;4955839;28;20451;-77
2021/06/15 04:52:23;;;;;;;;;;;;;;;-144.31;70.17;74944.50;4961287;28;19932;-75
2021/06/15 04:54:52;;;;;;;;;;;;;;;-144.31;70.23;74926.53;4941198;28;19917;-76
2021/06/15 04:57:32;;;;;;;;;;;;;;;-144.31;70.30;74904.56;4967465;28;20277;-75
2021/06/15 05:00:01;;;;;;;;;;;;;;;-144.31;70.39;74888.59;4964962;28;19976;-76
2021/06/15 05:02:27;;;;;;;;;;;;;;;-144.31;70.50;74870.63;4933500;28;19921;-78
2021/06/15 05:04:53;;;;;;;;;;;;;;;-144.31;70.63;74854.63;4965893;28;19923;-77
2021/06/15 05:07:20;;;;;;;;;;;;;;;-144.31;70.78;74826.69;4946943;29;19949;-77
2021/06/15 05:09:49;;;;;;;;;;;;;;;-144.31;70.96;74800.72;4953610;28;19918;-78
2021/06/15 05:12:17;;;;;;;;;;;;;;;-144.31;71.15;74766.78;4967477;28;19957;-78
2021/06/15 05:14:43;;;;;;;;;;;;;;;-144.31;71.48;74748.81;4963200;28;19918;-75
2021/06/15 05:17:10;;;;;;;;;;;;;;;-144.31;71.86;74738.81;4984901;28;19918;-75
2021/06/15 05:19:38;;;;;;;;;;;;;;;-144.31;72.25;74718.84;4971280;28;19918;-76
2021/06/15 05:22:04;;;;;;;;;;;;;;;-144.31;72.72;74684.91;4981275;28;20387;-76
2021/06/15 05:24:33;;;;;;;;;;;;;;;-144.31;73.31;74660.94;4970569;28;19929;-75
2021/06/15 05:26:58;;;;;;;;;;;;;;;-144.31;74.01;74628.97;4966494;28;19918;-76
2021/06/15 05:29:24;;;;;;;;;;;;;;;-144.31;74.86;74607.03;4958138;28;20331;-77
2021/06/15 05:31:51;;;;;;;;;;;;;;;-144.31;75.72;74581.06;4962797;28;20076;-77
2021/06/15 05:34:17;;;;;;;;;;;;;;;-144.31;76.63;74559.09;4959538;28;19914;-76
2021/06/15 05:36:42;;;;;;;;;;;;;;;-144.31;77.43;74543.13;4962547;28;19930;-76
2021/06/15 05:39:10;;;;;;;;;;;;;;;-144.31;78.09;74523.16;4982464;28;20296;-77
2021/06/15 05:41:35;;;;;;;;;;;;;;;-144.31;78.87;74491.22;4981090;28;19919;-79
2021/06/15 05:44:03;;;;;;;;;;;;;;;-144.31;79.91;74469.25;4982706;28;20417;-75
2021/06/15 05:46:31;;;;;;;;;;;;;;;-144.31;80.85;74447.28;4962741;28;19925;-75
2021/06/15 05:48:56;;;;;;;;;;;;;;;-144.31;81.86;74419.31;4975067;28;19922;-75
2021/06/15 05:51:21;;;;;;;;;;;;;;;-144.31;82.68;74381.38;4967266;28;19919;-76
2021/06/15 05:53:47;;;;;;;;;;;;;;;-144.31;83.71;74357.44;4952584;28;20436;-76
2021/06/15 05:56:14;;;;;;;;;;;;;;;-144.31;85.11;74335.47;4973514;28;19918;-76
2021/06/15 05:58:40;;;;;;;;;;;;;;;-144.31;86.00;74303.50;4960045;28;19918;-77
2021/06/15 06:01:05;;;;;;;;;;;;;;;-144.31;86.73;74287.53;4970063;28;20323;-76
2021/06/15 06:03:35;;;;;;;;;;;;;;;-144.31;88.08;74257.59;4955632;28;20016;-78
2021/06/15 06:08:45;;;;;;;;;;;;;;;-144.31;92.26;74205.69;4965576;28;19918;-76
2021/06/15 06:11:11;;;;;;;;;;;;;;;-144.31;95.16;74169.75;4960067;28;20374;-76
2021/06/15 06:13:38;;;;;;;;;;;;;;;-144.31;99.23;74135.78;4960541;28;19926;-77
2021/06/15 06:16:08;;;;;;;;;;;;;;;-144.31;100.00;74111.84;4958935;28;19917;-75
2021/06/15 06:18:34;;;;;;;;;;;;;;;-144.31;100.00;74085.88;4956226;28;20016;-76
2021/06/15 06:21:00;;;;;;;;;;;;;;;-144.31;100.00;74045.94;4967998;28;20080;-76
2021/06/15 06:23:28;;;;;;;;;;;;;;;-144.31;100.00;74027.97;4943835;28;19945;-77
2021/06/15 06:25:53;;;;;;;;;;;;;;;-144.31;100.00;74008.00;4969759;28;20399;-76
2021/06/15 06:28:18;;;;;;;;;;;;;;;-144.31;100.00;73982.06;4957411;28;19919;-76
2021/06/15 06:30:44;;;;;;;;;;;;;;;-144.31;100.00;73958.09;4956177;28;19918;-76
2021/06/15 06:33:09;;;;;;;;;;;;;;;-144.31;100.00;73932.16;4964734;28;20005;-75
2021/06/15 06:35:34;;;;;;;;;;;;;;;-144.31;100.00;73912.19;4952897;28;19957;-75
2021/06/15 06:38:00;;;;;;;;;;;;;;;-144.31;100.00;73882.22;4959046;28;19934;-75
2021/06/15 06:40:25;;;;;;;;;;;;;;;-144.31;100.00;73858.28;4944195;28;19919;-76
2021/06/15 06:42:51;;;;;;;;;;;;;;;-144.31;100.00;73828.34;4958453;28;19918;-75
2021/06/15 06:45:17;;;;;;;;;;;;;;;-144.31;100.00;73810.38;4960190;28;19925;-75
2021/06/15 06:47:42;;;;;;;;;;;;;;;-144.31;100.00;73792.41;4953603;28;19918;-75
2021/06/15 06:50:08;;;;;;;;;;;;;;;-144.31;100.00;73756.47;4959820;28;20365;-76
2021/06/15 06:52:33;;;;;;;;;;;;;;;-144.31;100.00;73742.47;4971313;28;19922;-76
2021/06/15 06:55:01;;;;;;;;;;;;;;;-144.31;100.00;73718.53;4958796;28;19948;-75
2021/06/15 06:57:27;;;;;;;;;;;;;;;-144.31;100.00;73708.53;4977572;28;19918;-75
2021/06/15 06:59:54;;;;;;;;;;;;;;;-144.31;100.00;73674.59;4969503;28;20455;-75
2021/06/15 07:02:20;;;;;;;;;;;;;;;-144.31;100.00;73646.66;4981893;28;20034;-76
2021/06/15 07:04:47;;;;;;;;;;;;;;;-144.31;100.00;73626.69;4963464;28;20400;-78
2021/06/15 07:07:13;;;;;;;;;;;;;;;-144.31;100.00;73606.72;4957460;28;19946;-76
2021/06/15 07:09:38;;;;;;;;;;;;;;;-144.31;100.00;73602.75;4971547;28;19921;-77
2021/06/15 07:12:04;;;;;;;;;;;;;;;-144.31;100.00;73606.72;4975235;28;20414;-76
2021/06/15 07:14:29;;;;;;;;;;;;;;;-144.31;100.00;73580.78;4959230;28;19915;-77
2021/06/15 07:16:55;;;;;;;;;;;;;;;-144.31;100.00;73546.84;4979552;28;19928;-77
2021/06/15 07:19:20;;;;;;;;;;;;;;;-144.31;100.00;73500.94;4954502;28;19922;-78
2021/06/15 07:21:45;;;;;;;;;;;;;;;-144.31;100.00;73480.97;4968712;28;20013;-79
2021/06/15 07:24:11;;;;;;;;;;;;;;;-144.31;100.00;73468.97;4980081;28;19924;-77
2021/06/15 07:26:38;;;;;;;;;;;;;;;-144.31;100.00;73455.00;4981369;28;19965;-78
2021/06/15 07:29:04;;;;;;;;;;;;;;;-144.31;100.00;73451.03;4965200;28;19984;-78
2021/06/15 07:31:30;;;;;;;;;;;;;;;-144.31;100.00;73474.97;4943371;28;19943;-76
2021/06/15 07:33:55;;;;;;;;;;;;;;;-144.31;100.00;73445.03;4962004;28;20441;-77
2021/06/15 07:36:23;;;;;;;;;;;;;;;-144.31;100.00;73399.13;4957650;28;19932;-79
2021/06/15 07:38:51;;;;;;;;;;;;;;;-144.31;100.00;73383.16;4973717;28;19922;-82
2021/06/15 07:41:16;;;;;;;;;;;;;;;-144.31;100.00;73357.19;4969386;28;19925;-79
2021/06/15 07:43:41;;;;;;;;;;;;;;;-144.31;100.00;73325.25;4962682;28;19922;-78
2021/06/15 07:46:07;;;;;;;;;;;;;;;-144.31;100.00;73359.19;4957120;28;19919;-78
2021/06/15 07:48:32;;;;;;;;;;;;;;;-144.31;100.00;73333.25;4951137;28;20426;-80
2021/06/15 07:51:02;;;;;;;;;;;;;;;-144.31;100.00;73283.34;4957628;28;20033;-81
2021/06/15 07:53:30;;;;;;;;;;;;;;;-144.31;100.00;73265.38;4963326;28;20368;-79
2021/06/15 07:55:55;;;;;;;;;;;;;;;-144.31;100.00;73315.28;4978072;28;20357;-79
2021/06/15 07:58:21;;;;;;;;;;;;;;;-144.31;100.00;73315.28;4960345;28;19929;-80
2021/06/15 08:00:46;;;;;;;;;;;;;;;-144.31;100.00;73245.41;4942647;28;20040;-82
2021/06/15 08:03:11;;;;;;;;;;;;;;;-144.31;100.00;73225.44;4975959;28;19926;-80
2021/06/15 08:05:37;;;;;;;;;;;;;;;-144.31;100.00;73175.53;4959559;28;19960;-81
2021/06/15 08:08:02;;;;;;;;;;;;;;;-144.31;100.00;73159.56;4957819;28;20183;-80
2021/06/15 08:10:28;;;;;;;;;;;;;;;-144.31;100.00;73181.53;4969891;28;20269;-80
2021/06/15 08:12:54;;;;;;;;;;;;;;;-144.31;100.00;73187.53;4976040;28;19969;-82
2021/06/15 08:15:19;;;;;;;;;;;;;;;-144.31;100.00;73105.69;4960233;28;19914;-80
2021/06/15 08:17:45;;;;;;;;;;;;;;;-144.31;100.00;73077.72;4968491;28;19918;-80
2021/06/15 08:20:11;;;;;;;;;;;;;;;-144.31;100.00;73087.72;4973667;28;19964;-82
2021/06/15 08:22:39;;;;;;;;;;;;;;;-144.31;100.00;73127.63;4963271;28;19925;-80
2021/06/15 08:25:05;;;;;;;;;;;;;;;-144.31;100.00;73061.75;4964475;28;20040;-79
2021/06/15 08:27:33;;;;;;;;;;;;;;;-144.31;100.00;73037.81;4963857;28;20835;-79
2021/06/15 08:30:07;;;;;;;;;;;;;;;-144.31;100.00;73017.84;4929002;28;19925;-82
2021/06/15 08:32:32;;;;;;;;;;;;;;;-144.31;100.00;72993.91;4969653;28;19978;-79
2021/06/15 08:34:57;;;;;;;;;;;;;;;-144.31;100.00;73009.88;4982396;28;20076;-84
2021/06/15 08:37:25;;;;;;;;;;;;;;;-144.31;100.00;72985.91;4979100;28;20290;-79
2021/06/15 08:39:50;;;;;;;;;;;;;;;-144.31;100.00;72995.91;4962375;28;19934;-76
2021/06/15 08:42:16;;;;;;;;;;;;;;;-144.31;100.00;73007.88;4972128;28;19944;-78
2021/06/15 08:44:44;;;;;;;;;;;;;;;-144.31;100.00;72934.03;4953731;28;19933;-75
2021/06/15 08:47:14;;;;;;;;;;;;;;;-144.31;100.00;72918.06;4962428;28;19925;-75
2021/06/15 08:49:40;;;;;;;;;;;;;;;-144.31;100.00;72912.06;4955197;28;19918;-75
2021/06/15 08:52:06;;;;;;;;;;;;;;;-144.31;100.00;72894.09;4962931;28;20013;-77
2021/06/15 08:54:34;;;;;;;;;;;;;;;-144.31;100.00;72890.09;4961062;28;20614;-77
2021/06/15 08:57:00;;;;;;;;;;;;;;;-144.31;100.00;72898.09;4965538;28;19922;-77
2021/06/15 08:59:29;;;;;;;;;;;;;;;-144.31;100.00;72926.03;4961249;28;19921;-76
2021/06/15 09:01:58;;;;;;;;;;;;;;;-144.31;100.00;72848.19;4954198;28;19919;-76
2021/06/15 09:04:24;;;;;;;;;;;;;;;-144.31;100.00;72830.22;4961363;28;20005;-76
2021/06/15 09:06:50;;;;;;;;;;;;;;;-144.31;100.00;72802.28;4959063;28;20016;-76
2021/06/15 09:09:16;;;;;;;;;;;;;;;-144.31;100.00;72828.22;4961094;28;19980;-76
2021/06/15 09:11:47;;;;;;;;;;;;;;;-144.31;100.00;72784.31;4952014;28;19953;-76
2021/06/15 09:14:16;;;;;;;;;;;;;;;-144.31;100.00;72808.28;4943373;28;20462;-76
2021/06/15 09:16:48;;;;;;;;;;;;;;;-144.31;100.00;72736.41;4954434;28;20424;-76
2021/06/15 09:19:18;;;;;;;;;;;;;;;-144.31;100.00;72654.59;4967065;28;19919;-76
2021/06/15 09:21:44;;;;;;;;;;;;;;;-144.31;100.00;72720.44;4954095;28;20389;-76
2021/06/15 09:24:14;;;;;;;;;;;;;;;-144.31;100.00;72790.31;4973765;28;19980;-77
2021/06/15 09:26:55;;;;;;;;;;;;;;;-144.31;100.00;72662.56;4962939;28;19918;-77
2021/06/15 09:29:40;;;;;;;;;;;;;;;-144.31;100.00;72742.41;4958706;28;19914;-77
2021/06/15 09:32:07;;;;;;;;;;;;;;;-144.31;100.00;72738.41;4950020;28;20402;-77
2021/06/15 09:34:32;;;;;;;;;;;;;;;-144.31;100.00;72748.41;4956770;28;20009;-76
2021/06/15 09:36:59;;;;;;;;;;;;;;;-144.31;100.00;72664.56;4946546;28;21037;-76
2021/06/15 09:39:24;;;;;;;;;;;;;;;-144.31;100.00;72614.66;4983293;28;20292;-76
2021/06/15 09:41:50;;;;;;;;;;;;;;;-144.31;100.00;72606.69;4960330;28;19918;-76
2021/06/15 09:44:17;;;;;;;;;;;;;;;-144.31;100.00;72872.16;4959213;28;19921;-76
2021/06/15 09:46:43;;;;;;;;;;;;;;;-144.31;100.00;72712.47;4948958;28;19933;-76
2021/06/15 09:49:09;;;;;;;;;;;;;;;-144.31;100.00;72614.66;4956714;28;20514;-76
2021/06/15 09:51:35;;;;;;;;;;;;;;;-144.31;100.00;72614.66;4958368;28;20018;-77
2021/06/15 09:54:02;;;;;;;;;;;;;;;-144.31;100.00;72616.66;4957195;28;19933;-77
2021/06/15 09:56:28;;;;;;;;;;;;;;;-144.31;100.00;72658.59;4957811;28;20439;-76
2021/06/15 09:58:54;;;;;;;;;;;;;;;-144.31;100.00;72652.59;4975073;28;19917;-76
2021/06/15 10:01:28;;;;;;;;;;;;;;;-144.31;100.00;72622.66;4956309;28;19918;-76
2021/06/15 10:04:09;;;;;;;;;;;;;;;-144.31;100.00;72722.44;4965006;28;20437;-74
2021/06/15 10:06:35;;;;;;;;;;;;;;;-144.31;100.00;72574.75;4957413;28;20328;-76
2021/06/15 10:09:00;;;;;;;;;;;;;;;-144.31;100.00;72560.78;4954990;28;20439;-76
2021/06/15 10:11:26;;;;;;;;;;;;;;;-144.31;100.00;72608.69;4952841;28;19937;-76
2021/06/15 10:13:52;;;;;;;;;;;;;;;-144.31;100.00;72534.84;4950016;28;19926;-77
2021/06/15 10:16:18;;;;;;;;;;;;;;;-144.31;100.00;72580.75;4974311;28;19929;-77
2021/06/15 10:18:43;;;;;;;;;;;;;;;-144.31;100.00;72668.56;4974271;28;19924;-77
2021/06/15 10:21:09;;;;;;;;;;;;;;;-144.31;100.00;72459.00;4974571;28;19918;-76
2021/06/15 10:23:34;;;;;;;;;;;;;;;-144.31;100.00;72401.13;4975419;28;20861;-76
2021/06/15 10:26:00;;;;;;;;;;;;;;;-144.31;100.00;72522.88;4962104;28;20297;-74
2021/06/15 10:28:25;;;;;;;;;;;;;;;-144.31;95.54;72431.06;4958111;28;19926;-76
2021/06/15 10:30:50;;;;;;;;;;;;;;;-144.31;94.79;72421.09;4975197;28;19918;-76
2021/06/15 10:33:17;;;;;;;;;;;;;;;-144.31;95.67;72552.81;4956297;28;20507;-77
2021/06/15 10:35:58;;;;;;;;;;;;;;;-144.31;100.00;72518.88;4955073;28;20427;-74
2021/06/15 10:38:29;;;;;;;;;;;;;;;-144.31;89.32;72331.28;4955382;28;20423;-77
2021/06/15 10:40:59;;;;;;;;;;;;;;;-144.31;83.81;72335.25;4953491;28;19918;-76
2021/06/15 10:43:26;;;;;;;;;;;;;;;-144.31;83.43;72339.25;4961504;28;20012;-74
2021/06/15 10:45:53;;;;;;;;;;;;;;;-144.31;83.08;72289.38;4956635;28;19921;-73
2021/06/15 10:48:20;;;;;;;;;;;;;;;-144.31;86.86;72435.06;4952373;28;19922;-77
2021/06/15 10:50:46;;;;;;;;;;;;;;;-144.31;85.74;72411.09;4954620;28;19973;-73
2021/06/15 10:53:14;;;;;;;;;;;;;;;-144.31;93.88;72510.88;4950529;28;19918;-75
2021/06/15 10:55:44;;;;;;;;;;;;;;;-144.31;94.10;72377.19;4966220;28;19914;-76
2021/06/15 10:58:10;;;;;;;;;;;;;;;-144.31;93.73;72486.94;4954633;28;20065;-73
2021/06/15 11:00:43;;;;;;;;;;;;;;;-144.31;88.17;72335.25;4966189;28;20020;-74
2021/06/15 11:03:23;;;;;;;;;;;;;;;-144.31;91.79;72413.09;4958909;28;19922;-75
2021/06/15 11:05:48;;;;;;;;;;;;;;;-144.31;88.64;72331.28;4955980;28;20000;-76
2021/06/15 11:08:18;;;;;;;;;;;;;;;-144.31;82.54;72405.13;4956329;28;19933;-75
2021/06/15 11:10:44;;;;;;;;;;;;;;;-144.31;80.96;72275.41;4950983;28;19921;-75
2021/06/15 11:13:10;;;;;;;;;;;;;;;-144.31;88.01;72329.28;4954396;28;20017;-76
2021/06/15 11:15:35;;;;;;;;;;;;;;;-144.31;84.59;72431.06;4941570;28;20001;-76
2021/06/15 11:18:12;;;;;;;;;;;;;;;-144.31;88.88;72405.13;4954929;28;19946;-70
2021/06/15 11:20:41;;;;;;;;;;;;;;;-144.31;86.67;72389.16;4953389;28;19922;-69
2021/06/15 11:23:10;;;;;;;;;;;;;;;-144.31;79.70;72309.31;4960765;28;19965;-71
2021/06/15 11:25:45;;;;;;;;;;;;;;;-144.31;80.96;72331.28;4954382;28;19928;-72
2021/06/15 11:28:29;;;;;;;;;;;;;;;-144.31;73.41;72133.69;4956931;28;20380;-72
2021/06/15 11:31:13;;;;;;;;;;;;;;;-144.31;68.66;72027.94;4951502;28;19980;-72
2021/06/15 11:33:57;;;;;;;;;;;;;;;-144.31;69.73;71966.06;4954365;28;19918;-70
2021/06/15 11:36:38;;;;;;;;;;;;;;;-144.31;65.43;71868.28;4954800;28;20017;-77
2021/06/15 11:39:22;;;;;;;;;;;;;;;-144.31;67.89;71992.03;4958725;28;20012;-70
2021/06/15 11:42:06;;;;;;;;;;;;;;;-144.31;66.66;71962.09;4957983;28;19929;-72
2021/06/15 11:44:47;;;;;;;;;;;;;;;-144.31;72.18;72189.59;4958682;28;19919;-73
2021/06/15 11:47:25;;;;;;;;;;;;;;;-144.31;73.17;72111.75;4955887;28;19925;-78
2021/06/15 11:50:09;;;;;;;;;;;;;;;-144.31;71.57;71896.22;4954747;28;20264;-78
2021/06/15 11:52:35;;;;;;;;;;;;;;;-144.31;70.73;71874.28;4955078;28;19918;-78
2021/06/15 11:55:01;;;;;;;;;;;;;;;-144.31;66.45;72103.78;4955864;28;20005;-79
2021/06/15 11:57:27;;;;;;;;;;;;;;;-144.31;55.89;71574.97;4968729;28;20088;-78
2021/06/15 11:59:55;;;;;;;;;;;;;;;-144.31;56.06;71628.84;4957423;28;19918;-78
2021/06/15 12:02:20;;;;;;;;;;;;;;;-144.31;55.48;71630.84;4956040;28;20291;-78
2021/06/15 12:05:02;;;;;;;;;;;;;;;-144.31;66.24;72089.81;4965761;28;20347;-75
2021/06/15 12:07:28;;;;;;;;;;;;;;;-144.31;65.78;71876.28;4959966;28;21023;-74
2021/06/15 12:10:09;;;;;;;;;;;;;;;-144.31;66.78;71994.00;4951151;28;20217;-74
2021/06/15 12:13:03;;;;;;;;;;;;;;;-144.31;70.22;71856.31;4955035;28;19929;-75
2021/06/15 12:15:47;;;;;;;;;;;;;;;-144.31;63.90;71656.78;4940470;28;19922;-74
2021/06/15 12:18:28;;;;;;;;;;;;;;;-144.31;67.43;72139.69;4955674;28;20373;-75
2021/06/15 12:20:55;;;;;;;;;;;;;;;-144.31;67.00;71896.22;4954289;28;20512;-75
2021/06/15 12:23:24;;;;;;;;;;;;;;;-144.31;67.47;71844.34;4958943;28;20001;-74
2021/06/15 12:25:50;;;;;;;;;;;;;;;-144.31;65.29;71710.66;4951302;28;20037;-75
2021/06/15 12:28:19;;;;;;;;;;;;;;;-144.31;65.40;71612.88;4963056;28;20020;-75
2021/06/15 12:31:02;;;;;;;;;;;;;;;-144.31;58.05;71467.22;4955344;28;19930;-76
2021/06/15 12:33:27;;;;;;;;;;;;;;;-144.31;58.94;71353.50;4957351;28;19922;-76